Time;durP1;ratioP1;P1;durP2;ratioP2;P2;SDS_P1;SDS_P2;PMS_P1;PMS_P2;Temp;Humidity;BMP_temperature;BMP_pressure;BME280_temperature;BME280_humidity;BME280_pressure;Samples;Min_cycle;Max_cycle;Signal;HPM_P1;HPM_P2
2021/05/08 00:01:06;;;;;;;19.13;11.40;;;2.90;99.90;;;;;;5014288;28;20033;-72
2021/05/08 00:03:32;;;;;;;18.15;10.43;;;2.90;99.90;;;;;;4995232;28;20045;-73
2021/05/08 00:06:00;;;;;;;15.70;10.75;;;2.80;99.90;;;;;;5013533;28;20029;-71
2021/05/08 00:08:25;;;;;;;17.10;11.55;;;2.80;99.90;;;;;;5013535;28;20034;-71
2021/05/08 00:10:51;;;;;;;15.85;10.40;;;2.80;99.90;;;;;;5013430;28;20101;-71
2021/05/08 00:13:17;;;;;;;17.33;10.27;;;2.70;99.90;;;;;;5012840;28;20087;-71
2021/05/08 00:15:42;;;;;;;19.08;10.57;;;2.80;99.90;;;;;;5013538;28;20034;-72
2021/05/08 00:18:08;;;;;;;13.15;9.52;;;2.70;99.90;;;;;;4998059;28;20046;-71
2021/05/08 00:20:33;;;;;;;15.80;9.93;;;2.80;99.90;;;;;;4976277;28;20022;-69
2021/05/08 00:22:59;;;;;;;16.52;9.35;;;2.70;99.90;;;;;;4993228;28;20084;-70
2021/05/08 00:25:25;;;;;;;17.83;8.65;;;2.70;99.90;;;;;;4993836;28;20062;-70
2021/05/08 00:27:50;;;;;;;10.30;7.90;;;2.70;99.90;;;;;;4993988;28;20030;-74
2021/05/08 00:30:17;;;;;;;11.65;7.65;;;2.60;99.90;;;;;;4976187;28;20531;-72
2021/05/08 00:32:43;;;;;;;11.77;7.10;;;2.60;99.90;;;;;;4992744;28;20029;-73
2021/05/08 00:35:09;;;;;;;11.05;7.10;;;2.60;99.90;;;;;;4993620;28;20041;-71
2021/05/08 00:37:35;;;;;;;16.90;8.07;;;2.60;99.90;;;;;;4997242;28;20696;-73
2021/05/08 00:40:00;;;;;;;10.15;7.78;;;2.60;99.90;;;;;;5005936;28;20022;-71
2021/05/08 00:42:26;;;;;;;12.93;7.43;;;2.50;99.90;;;;;;4995223;28;20089;-71
2021/05/08 00:44:52;;;;;;;11.32;8.23;;;2.50;99.90;;;;;;4992960;28;20443;-72
2021/05/08 00:47:19;;;;;;;11.52;7.05;;;2.40;99.90;;;;;;5000557;28;20472;-72
2021/05/08 00:49:46;;;;;;;11.75;8.05;;;2.30;99.90;;;;;;5012737;28;20021;-74
2021/05/08 00:52:13;;;;;;;13.15;8.75;;;2.40;99.90;;;;;;5012897;28;20145;-71
2021/05/08 00:54:39;;;;;;;11.30;8.07;;;2.30;99.90;;;;;;5012070;28;20030;-70
2021/05/08 00:57:05;;;;;;;12.45;9.63;;;2.30;99.90;;;;;;5012613;28;20587;-72
2021/05/08 00:59:31;;;;;;;12.68;8.95;;;2.30;99.90;;;;;;5012455;28;20022;-70
2021/05/08 01:01:56;;;;;;;13.13;8.85;;;2.30;99.90;;;;;;5012572;28;20054;-71
2021/05/08 01:04:22;;;;;;;17.70;9.43;;;2.30;99.90;;;;;;5011845;28;20021;-72
2021/05/08 01:06:48;;;;;;;16.80;9.65;;;2.40;99.90;;;;;;5012535;28;20026;-71
2021/05/08 01:09:15;;;;;;;16.05;9.50;;;2.30;99.90;;;;;;5012569;28;20029;-71
2021/05/08 01:11:41;;;;;;;14.38;9.57;;;2.30;99.90;;;;;;5012969;28;20034;-73
2021/05/08 01:14:06;;;;;;;12.82;8.77;;;2.30;99.90;;;;;;5018053;28;20034;-72
2021/05/08 01:16:32;;;;;;;16.95;10.48;;;2.30;99.90;;;;;;4993715;28;20080;-71
2021/05/08 01:18:58;;;;;;;12.95;9.00;;;2.20;99.90;;;;;;4992631;28;20029;-72
2021/05/08 01:21:24;;;;;;;14.80;8.55;;;2.10;99.90;;;;;;4975106;28;20031;-73
2021/05/08 01:23:51;;;;;;;17.50;9.95;;;2.10;99.90;;;;;;4992123;28;20030;-73
2021/05/08 01:26:17;;;;;;;15.55;9.48;;;2.10;99.90;;;;;;4992606;28;20076;-71
2021/05/08 01:28:44;;;;;;;14.98;9.10;;;2.00;99.90;;;;;;4992387;28;20034;-74
2021/05/08 01:31:11;;;;;;;15.63;8.57;;;2.10;99.90;;;;;;4992042;28;20034;-71
2021/05/08 01:33:37;;;;;;;15.68;9.32;;;2.10;99.90;;;;;;4991630;28;20449;-71
2021/05/08 01:36:03;;;;;;;13.68;8.82;;;2.10;99.90;;;;;;4992383;28;20029;-72
2021/05/08 01:38:30;;;;;;;13.20;8.98;;;2.10;99.90;;;;;;4976072;28;20038;-73
2021/05/08 01:41:07;;;;;;;13.60;8.88;;;2.10;99.90;;;;;;4992731;28;20392;-71
2021/05/08 01:43:34;;;;;;;13.45;9.07;;;2.00;99.90;;;;;;4974294;28;20108;-71
2021/05/08 01:46:00;;;;;;;18.95;10.30;;;2.00;99.90;;;;;;4992448;28;20025;-72
2021/05/08 01:48:27;;;;;;;15.75;9.27;;;2.00;99.90;;;;;;4990918;28;20026;-71
2021/05/08 01:50:53;;;;;;;13.55;9.38;;;1.90;99.90;;;;;;5012391;28;20113;-71
2021/05/08 01:53:19;;;;;;;18.92;10.25;;;1.80;99.90;;;;;;5011426;28;20608;-71
2021/05/08 01:55:45;;;;;;;13.25;9.75;;;1.70;99.90;;;;;;5011937;28;20104;-70
2021/05/08 01:58:11;;;;;;;17.00;9.90;;;1.70;99.90;;;;;;5011755;28;20026;-70
2021/05/08 02:00:47;;;;;;;15.20;9.63;;;1.70;99.90;;;;;;5011996;28;20388;-71
2021/05/08 02:03:14;;;;;;;18.30;9.40;;;1.70;99.90;;;;;;5011146;28;20046;-71
2021/05/08 02:05:41;;;;;;;18.35;10.40;;;1.70;99.90;;;;;;5011783;28;20064;-73
2021/05/08 02:08:08;;;;;;;14.68;10.20;;;1.70;99.90;;;;;;5011783;28;20022;-71
2021/05/08 02:10:36;;;;;;;15.82;10.32;;;1.70;99.90;;;;;;5015847;28;20025;-73
2021/05/08 02:13:04;;;;;;;14.32;9.52;;;1.60;99.90;;;;;;5015682;28;20040;-72
2021/05/08 02:15:30;;;;;;;15.40;10.02;;;1.70;99.90;;;;;;4993851;28;20100;-73
2021/05/08 02:17:56;;;;;;;16.45;10.65;;;1.70;99.90;;;;;;5011603;28;20030;-72
2021/05/08 02:20:27;;;;;;;14.73;9.93;;;1.70;99.90;;;;;;5012280;28;20639;-70
2021/05/08 02:22:58;;;;;;;18.92;9.65;;;1.70;99.90;;;;;;5012169;28;20018;-72
2021/05/08 02:25:24;;;;;;;14.20;9.48;;;1.60;99.90;;;;;;5012459;28;20033;-71
2021/05/08 02:27:50;;;;;;;12.07;9.05;;;1.70;99.90;;;;;;4995310;28;20644;-71
2021/05/08 02:30:24;;;;;;;13.75;9.13;;;1.70;99.90;;;;;;5011674;28;20029;-71
2021/05/08 02:32:51;;;;;;;15.63;9.40;;;1.70;99.90;;;;;;5010776;28;20487;-71
2021/05/08 02:35:18;;;;;;;12.10;8.48;;;1.60;99.90;;;;;;5011438;28;20038;-72
2021/05/08 02:37:44;;;;;;;19.05;10.10;;;1.60;99.90;;;;;;5011496;28;20115;-71
2021/05/08 02:40:12;;;;;;;14.50;9.38;;;1.50;99.90;;;;;;4993914;28;20045;-70
2021/05/08 02:42:38;;;;;;;15.57;10.50;;;1.40;99.90;;;;;;4995997;28;20022;-70
2021/05/08 02:45:06;;;;;;;14.68;10.00;;;1.40;99.90;;;;;;5015180;28;20091;-70
2021/05/08 02:47:32;;;;;;;18.35;9.93;;;1.40;99.90;;;;;;5005827;28;20022;-70
2021/05/08 02:49:58;;;;;;;17.17;10.52;;;1.40;99.90;;;;;;4995619;28;20037;-70
2021/05/08 02:52:24;;;;;;;15.48;10.10;;;1.40;99.90;;;;;;5088640;23;20027;-70
2021/05/08 02:54:50;;;;;;;17.73;10.77;;;1.40;99.90;;;;;;5031184;28;20499;-73
2021/05/08 02:57:17;;;;;;;18.55;10.55;;;1.30;99.90;;;;;;5033886;28;20383;-73
2021/05/08 02:59:42;;;;;;;16.92;10.52;;;1.40;99.90;;;;;;5016845;28;20120;-70
2021/05/08 03:02:09;;;;;;;18.08;10.43;;;1.40;99.90;;;;;;5015913;28;20112;-70
2021/05/08 03:04:35;;;;;;;19.27;11.27;;;1.30;99.90;;;;;;5034223;28;20075;-70
2021/05/08 03:07:02;;;;;;;13.35;9.85;;;1.30;99.90;;;;;;5034085;28;20025;-70
2021/05/08 03:09:28;;;;;;;16.85;10.88;;;1.30;99.90;;;;;;5034166;28;20034;-71
2021/05/08 03:11:53;;;;;;;18.35;11.38;;;1.20;99.90;;;;;;5016135;28;20025;-71
2021/05/08 03:14:19;;;;;;;20.98;12.02;;;1.20;99.90;;;;;;5033542;28;20088;-71
2021/05/08 03:16:45;;;;;;;19.02;12.43;;;1.20;99.90;;;;;;5033928;28;20021;-71
2021/05/08 03:19:10;;;;;;;18.98;11.32;;;1.30;99.90;;;;;;5033191;28;20029;-71
2021/05/08 03:21:37;;;;;;;19.65;11.65;;;1.20;99.90;;;;;;5033852;28;20110;-71
2021/05/08 03:24:04;;;;;;;22.73;11.63;;;1.30;99.90;;;;;;5033161;28;20013;-71
2021/05/08 03:26:30;;;;;;;16.63;11.45;;;1.30;99.90;;;;;;5016295;28;20053;-72
2021/05/08 03:28:56;;;;;;;18.48;11.82;;;1.20;99.90;;;;;;5034096;28;20130;-71
2021/05/08 03:31:22;;;;;;;20.52;10.95;;;1.20;99.90;;;;;;5033741;28;20049;-72
2021/05/08 03:33:47;;;;;;;17.95;10.38;;;1.20;99.90;;;;;;5029495;28;20037;-71
2021/05/08 03:36:13;;;;;;;15.50;10.82;;;1.20;99.90;;;;;;5014147;28;20631;-71
2021/05/08 03:38:39;;;;;;;17.40;10.90;;;1.00;99.90;;;;;;5014025;28;20099;-72
2021/05/08 03:41:05;;;;;;;19.40;11.15;;;1.00;99.90;;;;;;5013971;28;20464;-71
2021/05/08 03:43:31;;;;;;;20.88;10.85;;;1.10;99.90;;;;;;5013092;28;20041;-71
2021/05/08 03:45:57;;;;;;;16.65;11.27;;;1.10;99.90;;;;;;5013837;28;20462;-71
2021/05/08 03:48:22;;;;;;;17.40;11.55;;;1.10;99.90;;;;;;5013353;28;20374;-72
2021/05/08 03:50:48;;;;;;;18.67;11.93;;;1.10;99.90;;;;;;5013628;28;20033;-71
2021/05/08 03:53:14;;;;;;;18.90;13.05;;;1.10;99.90;;;;;;5016961;28;20026;-71
2021/05/08 03:55:40;;;;;;;20.63;12.05;;;1.10;99.90;;;;;;5016675;28;20373;-71
2021/05/08 03:58:06;;;;;;;20.95;12.13;;;1.10;99.90;;;;;;5013642;28;20045;-72
2021/05/08 04:00:32;;;;;;;20.27;12.85;;;1.10;99.90;;;;;;5013582;28;20480;-72
2021/05/08 04:02:57;;;;;;;17.63;11.95;;;1.10;99.90;;;;;;5012794;28;20036;-72
2021/05/08 04:05:23;;;;;;;19.92;12.60;;;1.10;99.90;;;;;;5013088;28;20123;-72
2021/05/08 04:07:49;;;;;;;16.35;11.75;;;1.00;99.90;;;;;;5013422;28;20049;-72
2021/05/08 04:10:15;;;;;;;19.48;11.57;;;1.20;99.90;;;;;;4996160;28;20025;-71
2021/05/08 04:12:41;;;;;;;17.23;11.95;;;1.10;99.90;;;;;;5012866;28;20037;-71
2021/05/08 04:15:07;;;;;;;19.20;11.85;;;1.20;99.90;;;;;;5012599;28;20079;-70
2021/05/08 04:17:33;;;;;;;20.40;11.98;;;1.10;99.90;;;;;;5013277;28;20090;-70
2021/05/08 04:19:59;;;;;;;18.95;12.32;;;1.20;99.90;;;;;;5017297;28;20113;-72
2021/05/08 04:22:24;;;;;;;18.13;12.43;;;1.20;99.90;;;;;;5014061;28;20018;-70
2021/05/08 04:24:50;;;;;;;18.30;12.60;;;1.20;99.90;;;;;;5012291;28;20057;-71
2021/05/08 04:27:16;;;;;;;21.17;11.77;;;1.30;99.90;;;;;;5013813;28;20033;-69
2021/05/08 04:29:41;;;;;;;23.02;12.63;;;1.30;99.90;;;;;;5012707;28;20026;-71
2021/05/08 04:32:07;;;;;;;26.10;12.52;;;1.30;99.90;;;;;;5012594;28;20531;-70
2021/05/08 04:34:32;;;;;;;21.25;12.38;;;1.40;99.90;;;;;;5012198;28;20092;-69
2021/05/08 04:36:58;;;;;;;17.33;11.45;;;1.40;99.90;;;;;;5012697;28;20080;-68
2021/05/08 04:39:25;;;;;;;21.35;13.15;;;1.40;99.90;;;;;;5012596;28;20431;-70
2021/05/08 04:41:51;;;;;;;23.15;12.27;;;1.40;99.90;;;;;;5012655;28;20395;-70
2021/05/08 04:44:17;;;;;;;15.93;11.30;;;1.40;99.90;;;;;;5011777;28;20022;-70
2021/05/08 04:46:42;;;;;;;17.80;11.75;;;1.50;99.90;;;;;;5012457;28;20120;-69
2021/05/08 04:49:08;;;;;;;17.88;11.80;;;1.50;99.90;;;;;;5011951;28;20057;-71
2021/05/08 04:51:34;;;;;;;21.00;12.15;;;1.50;99.90;;;;;;5012652;28;20037;-71
2021/05/08 04:53:59;;;;;;;19.88;12.35;;;1.60;99.90;;;;;;5011634;28;20042;-70
2021/05/08 04:56:25;;;;;;;18.13;11.45;;;1.60;99.90;;;;;;5012249;28;20397;-70
2021/05/08 04:58:51;;;;;;;17.67;11.55;;;1.70;99.90;;;;;;5012347;28;20030;-72
2021/05/08 05:01:17;;;;;;;14.85;11.18;;;1.70;99.90;;;;;;5012200;28;20026;-71
2021/05/08 05:03:42;;;;;;;16.48;11.43;;;1.70;99.90;;;;;;5011650;28;20025;-70
2021/05/08 05:06:08;;;;;;;20.58;12.27;;;1.80;99.90;;;;;;5011423;28;20053;-70
2021/05/08 05:08:34;;;;;;;17.02;12.02;;;1.80;99.90;;;;;;5012145;28;20018;-71
2021/05/08 05:10:59;;;;;;;19.27;12.00;;;1.80;99.90;;;;;;5011989;28;20049;-70
2021/05/08 05:13:25;;;;;;;18.67;12.15;;;1.80;99.90;;;;;;5011488;28;20037;-71
2021/05/08 05:15:52;;;;;;;18.55;13.23;;;1.80;99.90;;;;;;4994429;28;20107;-71
2021/05/08 05:18:18;;;;;;;16.90;12.60;;;1.90;99.90;;;;;;5012007;28;20038;-71
2021/05/08 05:20:45;;;;;;;21.35;13.32;;;1.90;99.90;;;;;;5011902;28;20052;-71
2021/05/08 05:23:11;;;;;;;17.45;11.75;;;2.00;99.90;;;;;;5011322;28;20425;-70
2021/05/08 05:25:37;;;;;;;19.40;13.15;;;2.00;99.90;;;;;;5011905;28;20547;-73
2021/05/08 05:28:04;;;;;;;19.42;12.77;;;2.10;99.90;;;;;;5012083;28;20033;-71
2021/05/08 05:30:30;;;;;;;20.60;12.98;;;2.10;99.90;;;;;;5012114;28;20045;-70
2021/05/08 05:32:55;;;;;;;21.38;12.82;;;2.20;99.90;;;;;;5011019;28;20053;-70
2021/05/08 05:35:21;;;;;;;16.02;10.07;;;2.20;99.90;;;;;;5011890;28;20065;-70
2021/05/08 05:37:47;;;;;;;14.38;8.95;;;2.20;99.90;;;;;;5011770;28;20026;-72
2021/05/08 05:40:13;;;;;;;11.02;8.65;;;2.20;99.90;;;;;;4993585;28;20068;-71
2021/05/08 05:42:39;;;;;;;14.32;9.00;;;2.20;99.90;;;;;;5011111;28;20032;-72
2021/05/08 05:45:06;;;;;;;10.93;8.32;;;2.20;99.90;;;;;;5011650;28;20105;-73
2021/05/08 05:47:32;;;;;;;15.18;9.80;;;2.30;99.90;;;;;;5036225;28;20059;-72
2021/05/08 05:49:58;;;;;;;16.17;8.48;;;2.40;99.90;;;;;;5054859;28;20056;-75
2021/05/08 05:52:24;;;;;;;11.85;8.15;;;2.60;99.90;;;;;;5017568;28;20038;-73
2021/05/08 05:54:51;;;;;;;11.40;7.70;;;2.70;99.90;;;;;;5030943;28;20395;-73
2021/05/08 05:57:18;;;;;;;12.45;8.10;;;2.70;99.90;;;;;;5016829;28;20104;-73
2021/05/08 05:59:44;;;;;;;9.68;7.40;;;2.70;99.90;;;;;;5011054;28;20673;-72
2021/05/08 06:02:11;;;;;;;10.25;7.40;;;2.80;99.90;;;;;;5009698;28;20026;-71
2021/05/08 06:04:37;;;;;;;14.73;8.23;;;2.90;99.90;;;;;;5009771;28;20054;-73
2021/05/08 06:07:03;;;;;;;9.20;6.72;;;2.90;99.90;;;;;;4991920;28;20065;-71
2021/05/08 06:09:28;;;;;;;9.82;7.15;;;2.90;99.90;;;;;;5009288;28;20040;-73
2021/05/08 06:11:55;;;;;;;9.07;7.00;;;3.10;99.90;;;;;;5009621;28;20057;-71
2021/05/08 06:14:22;;;;;;;7.45;6.20;;;3.20;99.90;;;;;;5009511;28;20026;-71
2021/05/08 06:16:48;;;;;;;8.10;6.40;;;3.30;99.90;;;;;;5016356;28;20068;-73
2021/05/08 06:19:13;;;;;;;9.05;6.50;;;3.50;99.90;;;;;;5013334;28;20030;-71
2021/05/08 06:21:40;;;;;;;15.15;7.15;;;3.50;99.90;;;;;;5013682;28;20030;-71
2021/05/08 06:24:07;;;;;;;14.18;6.93;;;3.60;99.90;;;;;;5015313;28;20120;-70
2021/05/08 06:26:34;;;;;;;9.20;6.82;;;3.70;99.90;;;;;;4997976;28;20026;-72
2021/05/08 06:29:00;;;;;;;15.35;6.68;;;3.80;99.90;;;;;;5013221;28;20112;-70
2021/05/08 06:31:25;;;;;;;8.65;6.40;;;3.90;99.90;;;;;;5014064;28;20476;-71
2021/05/08 06:33:51;;;;;;;10.93;5.97;;;4.10;99.90;;;;;;4994753;28;20496;-72
2021/05/08 06:36:17;;;;;;;10.02;5.78;;;4.20;99.90;;;;;;5013852;28;20022;-73
2021/05/08 06:38:43;;;;;;;10.40;6.07;;;4.40;99.90;;;;;;5019230;28;20029;-72
2021/05/08 06:41:08;;;;;;;11.40;6.22;;;4.60;99.90;;;;;;5001217;28;20033;-73
2021/05/08 06:43:34;;;;;;;10.15;6.07;;;4.80;99.90;;;;;;5013323;28;20022;-72
2021/05/08 06:46:00;;;;;;;8.35;5.90;;;4.80;99.90;;;;;;5013202;28;20029;-71
2021/05/08 06:48:25;;;;;;;9.77;5.65;;;5.00;99.90;;;;;;5012322;28;20095;-72
2021/05/08 06:50:51;;;;;;;8.63;5.47;;;5.20;99.90;;;;;;5012466;28;20412;-73
2021/05/08 06:53:17;;;;;;;7.80;5.57;;;5.20;99.90;;;;;;5006438;28;20091;-73
2021/05/08 06:55:42;;;;;;;7.55;5.40;;;5.30;99.90;;;;;;5016954;28;20022;-73
2021/05/08 06:58:08;;;;;;;9.90;5.32;;;5.60;99.90;;;;;;5005647;28;20037;-73
2021/05/08 07:00:34;;;;;;;8.57;5.07;;;5.70;99.90;;;;;;5025036;28;20021;-75
2021/05/08 07:02:59;;;;;;;8.20;5.70;;;6.10;99.90;;;;;;5012182;28;20054;-74
2021/05/08 07:05:25;;;;;;;7.53;4.45;;;6.80;99.90;;;;;;5012464;28;20495;-74
2021/05/08 07:08:05;;;;;;;8.15;5.35;;;7.40;99.90;;;;;;5012458;28;20022;-74
2021/05/08 07:10:31;;;;;;;12.15;5.10;;;8.20;99.90;;;;;;5012389;28;20451;-75
2021/05/08 07:12:56;;;;;;;4.65;4.18;;;8.50;99.90;;;;;;5011956;28;20090;-74
2021/05/08 07:15:22;;;;;;;7.82;4.35;;;8.70;99.90;;;;;;5012231;28;20480;-74
2021/05/08 07:18:06;;;;;;;5.35;4.82;;;8.70;99.90;;;;;;5013898;28;20036;-73
2021/05/08 07:20:33;;;;;;;5.55;4.22;;;8.50;99.90;;;;;;5013494;28;20751;-73
2021/05/08 07:22:59;;;;;;;7.53;4.40;;;8.40;99.90;;;;;;5012388;28;20072;-73
2021/05/08 07:25:26;;;;;;;6.90;4.03;;;8.20;99.90;;;;;;5012402;28;20030;-72
2021/05/08 07:27:51;;;;;;;5.75;4.43;;;8.30;99.90;;;;;;5021899;28;20057;-71
2021/05/08 07:30:17;;;;;;;7.45;3.67;;;8.50;99.90;;;;;;5031530;28;20522;-74
2021/05/08 07:32:43;;;;;;;3.78;3.42;;;8.80;99.90;;;;;;5031286;28;20076;-72
2021/05/08 07:35:09;;;;;;;8.70;4.00;;;8.80;99.90;;;;;;5032247;28;20044;-72
2021/05/08 07:37:35;;;;;;;8.13;4.40;;;9.00;99.90;;;;;;5032142;28;20029;-70
2021/05/08 07:40:01;;;;;;;4.15;2.72;;;9.10;99.90;;;;;;5032172;28;20347;-72
2021/05/08 07:42:27;;;;;;;5.72;4.18;;;9.20;99.90;;;;;;5031829;28;20115;-72
2021/05/08 07:44:53;;;;;;;8.65;3.78;;;9.30;99.90;;;;;;5019126;28;20628;-72
2021/05/08 07:47:19;;;;;;;8.63;3.58;;;9.30;99.90;;;;;;5012399;28;20416;-71
2021/05/08 07:49:45;;;;;;;6.78;3.33;;;9.20;99.90;;;;;;5011636;28;20504;-71
2021/05/08 07:52:11;;;;;;;5.40;3.00;;;9.10;99.90;;;;;;5004134;28;20048;-70
2021/05/08 07:54:36;;;;;;;3.78;3.08;;;9.20;99.90;;;;;;5031479;28;20128;-73
2021/05/08 07:57:02;;;;;;;4.50;3.38;;;9.50;99.90;;;;;;5031254;28;20116;-72
2021/05/08 07:59:28;;;;;;;5.82;3.08;;;9.90;99.90;;;;;;5031280;28;20034;-72
2021/05/08 08:01:54;;;;;;;4.38;3.05;;;10.10;99.90;;;;;;5030270;28;20745;-73
2021/05/08 08:04:19;;;;;;;4.20;3.03;;;10.10;99.90;;;;;;5011197;28;20046;-70
2021/05/08 08:06:45;;;;;;;2.95;2.53;;;10.50;99.90;;;;;;5011920;28;20640;-70
2021/05/08 08:09:11;;;;;;;3.33;2.88;;;10.40;99.90;;;;;;5011217;28;20030;-70
2021/05/08 08:11:37;;;;;;;3.13;2.60;;;10.50;99.90;;;;;;5011815;28;20026;-72
2021/05/08 08:14:03;;;;;;;3.00;2.53;;;10.90;99.90;;;;;;4989541;28;20034;-70
2021/05/08 08:16:32;;;;;;;3.88;2.45;;;11.40;99.90;;;;;;5010124;28;20030;-70
2021/05/08 08:18:57;;;;;;;3.05;2.45;;;11.90;99.90;;;;;;5010658;28;20471;-70
2021/05/08 08:21:23;;;;;;;4.25;2.47;;;12.30;99.90;;;;;;5011076;28;20018;-71
2021/05/08 08:23:50;;;;;;;3.97;2.65;;;12.80;99.90;;;;;;5010765;28;20026;-73
2021/05/08 08:26:16;;;;;;;2.20;2.00;;;13.20;99.90;;;;;;5010508;28;20025;-71
2021/05/08 08:28:41;;;;;;;3.58;1.80;;;13.70;99.90;;;;;;5010710;28;20022;-70
2021/05/08 08:31:07;;;;;;;2.38;1.85;;;14.10;97.70;;;;;;5010874;28;20026;-71
2021/05/08 08:33:33;;;;;;;1.90;1.70;;;14.60;98.30;;;;;;5010108;28;20499;-70
2021/05/08 08:35:58;;;;;;;2.67;1.80;;;14.20;92.60;;;;;;4992453;28;20072;-69
2021/05/08 08:38:24;;;;;;;3.13;1.88;;;14.40;95.30;;;;;;5011087;28;20033;-69
2021/05/08 08:40:50;;;;;;;2.63;1.52;;;14.90;92.70;;;;;;5010622;28;20431;-71
2021/05/08 08:43:15;;;;;;;1.48;1.38;;;15.80;93.90;;;;;;5010542;28;20080;-70
2021/05/08 08:45:43;;;;;;;3.28;1.90;;;17.50;87.20;;;;;;5010951;28;20033;-71
2021/05/08 08:48:09;;;;;;;1.83;1.52;;;17.30;84.70;;;;;;4993382;28;20391;-74
2021/05/08 08:50:36;;;;;;;1.70;1.40;;;16.60;81.80;;;;;;5010228;28;20045;-71
2021/05/08 08:53:04;;;;;;;2.88;1.60;;;16.90;85.70;;;;;;5008981;28;20033;-73
2021/05/08 08:55:32;;;;;;;1.73;1.40;;;18.10;80.50;;;;;;5030631;28;20032;-71
2021/05/08 08:58:02;;;;;;;2.75;1.40;;;17.80;76.60;;;;;;5031653;28;20025;-70
2021/05/08 09:00:29;;;;;;;3.70;1.63;;;17.50;82.40;;;;;;5033779;28;20039;-69
2021/05/08 09:02:54;;;;;;;2.67;1.23;;;18.00;82.30;;;;;;5031356;28;20096;-69
2021/05/08 09:05:23;;;;;;;3.15;1.52;;;19.30;73.30;;;;;;5029775;28;20168;-69
2021/05/08 09:07:50;;;;;;;1.80;1.65;;;19.60;73.20;;;;;;5030200;28;20018;-70
2021/05/08 09:10:27;;;;;;;3.83;1.48;;;19.40;71.30;;;;;;5029775;28;20033;-69
2021/05/08 09:12:55;;;;;;;2.47;1.27;;;20.00;72.30;;;;;;5011584;28;20128;-69
2021/05/08 09:15:42;;;;;;;4.82;1.48;;;20.20;71.00;;;;;;5029415;28;20053;-69
2021/05/08 09:18:10;;;;;;;2.45;1.40;;;19.60;68.40;;;;;;5030376;28;20036;-75
2021/05/08 09:20:51;;;;;;;1.77;1.50;;;19.80;70.10;;;;;;5019856;28;20079;-73
2021/05/08 09:23:37;;;;;;;2.00;1.20;;;19.80;68.40;;;;;;5009567;28;20029;-74
2021/05/08 09:26:11;;;;;;;1.95;1.38;;;19.30;69.30;;;;;;5010078;28;20121;-74
2021/05/08 09:28:39;;;;;;;1.83;1.30;;;19.60;68.40;;;;;;5001850;28;20024;-74
2021/05/08 09:31:11;;;;;;;2.28;1.40;;;19.00;65.90;;;;;;5018908;28;20022;-75
2021/05/08 09:33:37;;;;;;;2.97;1.30;;;18.20;71.20;;;;;;5017730;28;20033;-75
2021/05/08 09:36:04;;;;;;;10.00;2.13;;;18.20;70.70;;;;;;4998357;28;20411;-73
2021/05/08 09:38:34;;;;;;;2.33;1.48;;;18.20;72.30;;;;;;5019681;28;20033;-75
2021/05/08 09:41:00;;;;;;;4.13;1.30;;;19.00;72.30;;;;;;5020307;28;20530;-76
2021/05/08 09:43:26;;;;;;;2.10;1.25;;;19.00;66.90;;;;;;5011635;28;20038;-72
2021/05/08 09:45:53;;;;;;;2.58;1.48;;;19.50;68.50;;;;;;5009699;28;20694;-73
2021/05/08 09:48:26;;;;;;;4.07;1.30;;;19.40;68.30;;;;;;5010015;28;20032;-72
2021/05/08 09:50:52;;;;;;;2.00;1.30;;;20.20;68.50;;;;;;5020939;28;20044;-75
2021/05/08 09:53:29;;;;;;;1.63;1.38;;;20.80;66.50;;;;;;5019395;28;20034;-74
2021/05/08 09:55:55;;;;;;;3.42;1.42;;;20.60;61.80;;;;;;5017822;28;20044;-78
2021/05/08 09:58:25;;;;;;;5.72;1.55;;;20.20;63.60;;;;;;5003144;28;20033;-75
2021/05/08 10:00:52;;;;;;;1.48;1.38;;;20.10;63.80;;;;;;5008614;28;20104;-74
2021/05/08 10:03:19;;;;;;;3.60;1.40;;;19.70;61.20;;;;;;5002850;28;20036;-73
2021/05/08 10:06:02;;;;;;;1.67;1.55;;;19.40;66.00;;;;;;5018581;28;20045;-73
2021/05/08 10:08:28;;;;;;;1.50;1.40;;;19.60;64.20;;;;;;5001442;28;20447;-75
2021/05/08 10:10:54;;;;;;;2.20;1.30;;;20.00;64.30;;;;;;5017545;28;20057;-78
2021/05/08 10:13:21;;;;;;;1.25;1.13;;;20.60;60.00;;;;;;5018227;28;20037;-73
2021/05/08 10:15:47;;;;;;;2.88;1.27;;;21.20;60.30;;;;;;5018368;28;20080;-74
2021/05/08 10:18:14;;;;;;;1.13;1.02;;;22.30;60.80;;;;;;5016770;28;20034;-75
2021/05/08 10:20:41;;;;;;;2.55;1.38;;;21.20;62.30;;;;;;5018673;28;20101;-73
2021/05/08 10:23:11;;;;;;;3.17;1.55;;;20.00;64.40;;;;;;5018927;28;20022;-76
2021/05/08 10:25:44;;;;;;;1.55;1.30;;;20.40;66.10;;;;;;5026592;28;20201;-75
2021/05/08 10:28:10;;;;;;;1.70;1.20;;;20.50;64.20;;;;;;5033927;28;20052;-73
2021/05/08 10:30:42;;;;;;;1.75;1.40;;;20.40;65.30;;;;;;5019914;28;20057;-73
2021/05/08 10:33:16;;;;;;;;;;;19.50;64.00;;;;;;5017875;28;20739;-74
2021/05/08 10:35:49;;;;;;;2.78;1.10;;;19.70;68.30;;;;;;5019807;28;19909;-74
2021/05/08 10:38:58;;;;;;;1.95;1.35;;;20.60;64.50;;;;;;5019834;28;20029;-75
2021/05/08 10:41:10;;;;;;;3.22;1.33;;;21.50;63.50;;;;;;5008929;28;20474;-73
2021/05/08 10:43:54;;;;;;;2.00;1.40;;;22.00;60.00;;;;;;5016438;28;20038;-75
2021/05/08 10:46:22;;;;;;;3.42;1.15;;;22.30;59.70;;;;;;5017888;28;20073;-76
2021/05/08 10:49:07;;;;;;;2.00;1.55;;;22.70;58.90;;;;;;5025914;28;20112;-73
2021/05/08 10:51:58;;;;;;;2.85;1.30;;;23.40;55.90;;;;;;5011912;28;20093;-71
2021/05/08 10:54:41;;;;;;;2.13;1.30;;;22.30;60.10;;;;;;4991226;28;20046;-70
2021/05/08 10:57:24;;;;;;;2.47;1.25;;;22.80;59.00;;;;;;5009173;28;20506;-72
2021/05/08 11:00:04;;;;;;;;;;;20.70;57.80;;;;;;5009775;28;20746;-71
2021/05/08 11:02:45;;;;;;;1.63;1.20;;;20.20;62.10;;;;;;5017893;28;19973;-73
2021/05/08 11:05:34;;;;;;;1.80;1.20;;;19.90;60.50;;;;;;5032920;28;20022;-71
2021/05/08 11:08:20;;;;;;;1.50;1.10;;;20.10;65.80;;;;;;5032399;28;20499;-73
2021/05/08 11:10:56;;;;;;;1.40;1.05;;;21.60;59.80;;;;;;5032390;28;20029;-72
2021/05/08 11:13:24;;;;;;;1.45;1.35;;;20.50;59.20;;;;;;5014334;28;20057;-71
2021/05/08 11:18:30;;;;;;;2.03;1.20;;;19.80;62.60;;;;;;5022901;28;20036;-72
2021/05/08 11:21:20;;;;;;;3.42;2.13;;;19.60;62.00;;;;;;5013250;28;20037;-72
2021/05/08 11:23:58;;;;;;;3.22;1.17;;;20.10;66.50;;;;;;5011421;28;20472;-72
2021/05/08 11:26:30;;;;;;;3.40;1.30;;;21.70;61.50;;;;;;5012452;28;20099;-73
2021/05/08 11:29:24;;;;;;;1.83;1.40;;;23.10;58.10;;;;;;5016419;28;20040;-72
2021/05/08 11:31:52;;;;;;;1.92;1.13;;;23.80;57.00;;;;;;5002369;28;20442;-74
2021/05/08 11:34:22;;;;;;;1.42;0.93;;;23.60;57.90;;;;;;5016739;28;20100;-72
2021/05/08 11:36:48;;;;;;;4.38;1.40;;;23.50;56.50;;;;;;5021225;28;20064;-72
2021/05/08 11:39:15;;;;;;;3.30;1.67;;;22.60;57.10;;;;;;5003475;28;20133;-72
2021/05/08 11:41:43;;;;;;;3.40;1.10;;;21.70;58.60;;;;;;5022383;28;20514;-73
2021/05/08 11:44:17;;;;;;;1.25;0.93;;;22.50;57.70;;;;;;5020019;28;20467;-72
2021/05/08 11:46:54;;;;;;;2.40;1.42;;;22.60;55.50;;;;;;5021280;28;20026;-72
2021/05/08 11:49:30;;;;;;;2.10;1.00;;;23.20;54.90;;;;;;5022124;28;20629;-73
2021/05/08 11:51:57;;;;;;;1.40;1.30;;;23.10;54.10;;;;;;5005234;28;20029;-71
2021/05/08 11:54:25;;;;;;;2.53;1.50;;;22.30;54.40;;;;;;5035096;28;20060;-71
2021/05/08 11:56:51;;;;;;;5.75;1.20;;;22.90;57.10;;;;;;5033941;28;20061;-73
2021/05/08 11:59:29;;;;;;;1.45;0.90;;;23.00;54.20;;;;;;5032199;28;20089;-72
2021/05/08 12:02:10;;;;;;;0.95;0.93;;;23.50;54.80;;;;;;5032859;28;20048;-71
2021/05/08 12:04:53;;;;;;;1.95;1.00;;;24.40;54.00;;;;;;5031327;28;20030;-71
2021/05/08 12:07:24;;;;;;;1.25;1.05;;;24.80;53.30;;;;;;5031923;28;20534;-73
2021/05/08 12:09:51;;;;;;;1.15;1.05;;;27.40;52.90;;;;;;5031242;28;20691;-72
2021/05/08 12:12:17;;;;;;;3.17;1.30;;;27.10;46.30;;;;;;5027539;28;20067;-74
2021/05/08 12:14:44;;;;;;;1.50;0.95;;;25.60;48.30;;;;;;5018997;28;20026;-73
2021/05/08 12:17:11;;;;;;;0.90;0.90;;;24.20;49.70;;;;;;5020920;28;20057;-75
2021/05/08 12:19:38;;;;;;;0.77;0.70;;;23.20;51.20;;;;;;5001240;28;20030;-74
2021/05/08 12:22:05;;;;;;;2.88;0.80;;;23.00;52.70;;;;;;5021345;28;20029;-75
2021/05/08 12:24:31;;;;;;;1.60;1.05;;;23.10;53.80;;;;;;5021091;28;20026;-78
2021/05/08 12:26:56;;;;;;;1.17;1.00;;;22.30;54.40;;;;;;5019660;28;20093;-76
2021/05/08 12:29:22;;;;;;;2.50;1.20;;;21.00;54.10;;;;;;5018947;28;20698;-75
2021/05/08 12:31:48;;;;;;;0.80;0.80;;;20.60;59.20;;;;;;5023076;28;20018;-75
2021/05/08 12:34:17;;;;;;;1.73;1.02;;;21.40;55.90;;;;;;5022188;28;20030;-74
2021/05/08 12:37:18;;;;;;;0.75;0.75;;;21.90;57.50;;;;;;5009611;28;20742;-75
2021/05/08 12:39:45;;;;;;;3.38;1.00;;;22.40;55.70;;;;;;4948967;28;20055;-73
2021/05/08 12:42:11;;;;;;;0.98;0.70;;;22.30;53.90;;;;;;5000147;28;20091;-73
2021/05/08 12:44:46;;;;;;;1.77;0.73;;;22.10;53.80;;;;;;5011329;28;20026;-72
2021/05/08 12:47:18;;;;;;;1.38;1.00;;;22.90;54.90;;;;;;4994102;28;20049;-72
2021/05/08 12:50:06;;;;;;;1.25;1.15;;;22.30;52.80;;;;;;5011795;28;20048;-72
2021/05/08 12:52:33;;;;;;;3.40;0.88;;;21.00;56.90;;;;;;5024613;28;20061;-74